Terminal Aerodrome Forecast
Issued by NWS Charleston, WV

Current Version | Previous Version | Graphics & Text | Print | Product List | Glossary On
Versions: 1 2 3 4 5 6 7 8 9 10 11 12 13 14 15 16 17 18 19 20 21 22 23 24 25
000
FTUS41 KRLX 020900 AAA
TAFCRW
TAF AMD
KCRW 020921Z 0209/0306 29004KT 1SM -RA BR OVC004
      TEMPO 0209/0210 3SM -RA BR OVC005
     FM021000 29007KT 3SM -RA BR OVC005
     FM021200 29008KT 6SM BR OVC010
     FM021400 32006KT P6SM BKN020
     FM021700 32005KT P6SM SCT020=

USA.gov is the U.S. government's official web portal to all federal, state and local government web resources and services.